createdAt,value
2022-08-23T00:00:13.291Z,17.30
2022-08-23T00:02:43.665Z,17.30
2022-08-23T00:05:12.737Z,17.30
2022-08-23T00:07:44.072Z,17.30
2022-08-23T00:10:16.981Z,17.30
2022-08-23T00:12:47.057Z,17.30
2022-08-23T00:15:20.784Z,17.30
2022-08-23T00:17:50.401Z,17.20
2022-08-23T00:20:21.201Z,17.10
2022-08-23T00:22:49.382Z,17.00
2022-08-23T00:25:17.793Z,17.00
2022-08-23T00:27:46.015Z,16.90
2022-08-23T00:30:16.769Z,16.90
2022-08-23T00:32:46.053Z,16.90
2022-08-23T00:35:26.814Z,16.90
2022-08-23T00:38:31.824Z,16.80
2022-08-23T00:40:47.560Z,16.80
2022-08-23T00:43:38.921Z,16.80
2022-08-23T00:46:40.715Z,16.80
2022-08-23T00:49:14.072Z,16.80
2022-08-23T00:51:53.640Z,16.80
2022-08-23T00:54:25.388Z,16.70
2022-08-23T00:56:54.996Z,16.70
2022-08-23T00:59:23.888Z,16.60
2022-08-23T01:01:52.973Z,16.60
2022-08-23T01:04:21.861Z,16.60
2022-08-23T01:07:00.337Z,16.60
2022-08-23T01:09:28.919Z,16.60
2022-08-23T01:12:06.921Z,16.50
2022-08-23T01:14:42.650Z,16.50
2022-08-23T01:17:17.645Z,16.50
2022-08-23T01:19:51.798Z,16.50
2022-08-23T01:22:31.038Z,16.50
2022-08-23T01:25:07.398Z,16.50
2022-08-23T01:27:38.326Z,16.50
2022-08-23T01:30:11.783Z,16.50
2022-08-23T01:32:46.865Z,16.50
2022-08-23T01:35:16.819Z,16.50
2022-08-23T01:37:45.847Z,16.50
2022-08-23T01:40:16.154Z,16.60
2022-08-23T01:42:44.784Z,16.60
2022-08-23T01:45:15.586Z,16.60
2022-08-23T01:47:44.178Z,16.60
2022-08-23T01:50:14.062Z,16.60
2022-08-23T01:52:47.156Z,16.60
2022-08-23T01:55:18.309Z,16.60
2022-08-23T01:57:50.172Z,16.60
2022-08-23T02:00:20.115Z,16.50
2022-08-23T02:02:48.273Z,16.50
2022-08-23T02:05:19.003Z,16.50
2022-08-23T02:07:48.012Z,16.40
2022-08-23T02:10:17.917Z,16.40
2022-08-23T02:12:46.694Z,16.30
2022-08-23T02:15:16.101Z,16.30
2022-08-23T02:17:46.499Z,16.40
2022-08-23T02:20:15.203Z,16.40
2022-08-23T02:22:43.336Z,16.40
2022-08-23T02:25:11.752Z,16.40
2022-08-23T02:27:44.104Z,16.30
2022-08-23T02:30:14.683Z,16.30
2022-08-23T02:32:42.751Z,16.40
2022-08-23T02:35:12.027Z,16.40
2022-08-23T02:37:40.277Z,16.30
2022-08-23T02:40:09.897Z,16.30
2022-08-23T02:42:38.110Z,16.30
2022-08-23T02:45:09.415Z,16.20
2022-08-23T02:47:38.812Z,16.10
2022-08-23T02:50:09.337Z,16.00
2022-08-23T02:52:37.523Z,16.00
2022-08-23T02:55:07.520Z,16.00
2022-08-23T02:57:35.681Z,15.90
2022-08-23T03:00:05.696Z,15.90
2022-08-23T03:02:35.279Z,15.80
2022-08-23T03:05:03.504Z,15.90
2022-08-23T03:07:31.947Z,15.90
2022-08-23T03:10:00.270Z,15.80
2022-08-23T03:12:28.584Z,15.80
2022-08-23T03:14:56.750Z,15.80
2022-08-23T03:17:25.577Z,15.70
2022-08-23T03:19:55.326Z,15.70
2022-08-23T03:22:24.188Z,15.80
2022-08-23T03:24:52.448Z,15.80
2022-08-23T03:27:20.594Z,15.70
2022-08-23T03:29:48.823Z,15.70
2022-08-23T03:32:17.054Z,15.70
2022-08-23T03:34:45.384Z,15.70
2022-08-23T03:37:15.420Z,15.70
2022-08-23T03:39:43.507Z,15.70
2022-08-23T03:42:11.986Z,15.70
2022-08-23T03:44:40.319Z,15.70
2022-08-23T03:47:08.742Z,15.70
2022-08-23T03:49:37.191Z,15.70
2022-08-23T03:52:05.812Z,15.70
2022-08-23T03:54:36.309Z,15.70
2022-08-23T03:57:09.370Z,15.70
2022-08-23T03:59:41.130Z,15.70
2022-08-23T04:02:10.068Z,15.60
2022-08-23T04:04:38.335Z,15.60
2022-08-23T04:07:06.747Z,15.60
2022-08-23T04:09:36.198Z,15.60
2022-08-23T04:12:12.075Z,15.60
2022-08-23T04:14:46.734Z,15.60
2022-08-23T04:17:15.739Z,15.70
2022-08-23T04:19:43.962Z,15.70
2022-08-23T04:22:16.061Z,15.90
2022-08-23T04:24:47.198Z,15.90
2022-08-23T04:27:15.939Z,16.00
2022-08-23T04:29:44.357Z,16.10
2022-08-23T04:32:12.903Z,16.20
2022-08-23T04:34:45.369Z,16.20
2022-08-23T04:37:14.047Z,16.20
2022-08-23T04:39:56.560Z,16.30
2022-08-23T04:42:26.201Z,16.30
2022-08-23T04:44:54.280Z,16.40
2022-08-23T04:47:22.380Z,16.40
2022-08-23T04:49:50.473Z,16.60
2022-08-23T04:52:19.525Z,16.60
2022-08-23T04:54:47.925Z,16.60
2022-08-23T04:57:16.802Z,16.70
2022-08-23T04:59:46.248Z,16.70
2022-08-23T05:02:14.603Z,16.80
2022-08-23T05:04:42.716Z,16.80
2022-08-23T05:07:10.844Z,16.80
2022-08-23T05:09:39.254Z,16.90
2022-08-23T05:12:07.854Z,16.90
2022-08-23T05:14:36.551Z,16.90
2022-08-23T05:17:06.511Z,17.00
2022-08-23T05:19:36.274Z,17.10
2022-08-23T05:22:12.608Z,17.10
2022-08-23T05:24:40.942Z,17.20
2022-08-23T05:27:13.490Z,17.30
2022-08-23T05:29:42.134Z,17.30
2022-08-23T05:32:11.653Z,17.40
2022-08-23T05:34:39.716Z,17.50
2022-08-23T05:37:07.773Z,17.60
2022-08-23T05:39:36.256Z,17.70
2022-08-23T05:42:05.744Z,17.70
2022-08-23T05:44:36.124Z,17.80
2022-08-23T05:47:10.738Z,17.90
2022-08-23T05:49:41.497Z,17.90
2022-08-23T05:52:13.091Z,18.00
2022-08-23T05:54:42.003Z,18.10
2022-08-23T05:57:11.438Z,18.30
2022-08-23T05:59:40.617Z,18.40
2022-08-23T06:02:08.801Z,18.40
2022-08-23T06:04:37.128Z,18.40
2022-08-23T06:07:06.875Z,18.50
2022-08-23T06:09:35.120Z,18.50
2022-08-23T06:12:03.535Z,18.60
2022-08-23T06:14:31.764Z,18.70
2022-08-23T06:16:59.928Z,18.70
2022-08-23T06:19:28.099Z,18.90
2022-08-23T06:21:56.294Z,18.80
2022-08-23T06:24:26.896Z,18.90
2022-08-23T06:26:55.071Z,18.80
2022-08-23T06:29:23.262Z,18.90
2022-08-23T06:31:54.117Z,18.80
2022-08-23T06:34:26.328Z,19.00
2022-08-23T06:36:57.451Z,19.10
2022-08-23T06:39:33.442Z,19.20
2022-08-23T06:42:34.433Z,19.10
2022-08-23T06:44:57.463Z,19.20
2022-08-23T06:47:25.614Z,19.30
2022-08-23T06:49:57.930Z,19.30
2022-08-23T06:52:27.243Z,19.30
2022-08-23T06:54:57.911Z,19.40
2022-08-23T06:57:26.448Z,19.50
2022-08-23T06:59:54.964Z,19.50
2022-08-23T07:02:23.173Z,19.60
2022-08-23T07:04:54.028Z,19.70
2022-08-23T07:07:22.639Z,19.70
2022-08-23T07:09:50.935Z,19.70
2022-08-23T07:12:22.059Z,19.80
2022-08-23T07:14:50.451Z,20.00
2022-08-23T07:17:18.698Z,20.10
2022-08-23T07:19:47.068Z,20.10
2022-08-23T07:22:15.553Z,20.20
2022-08-23T07:24:44.061Z,20.30
2022-08-23T07:27:12.683Z,20.30
2022-08-23T07:29:42.584Z,20.40
2022-08-23T07:32:11.277Z,20.50
2022-08-23T07:34:39.448Z,20.40
2022-08-23T07:37:15.448Z,20.50
2022-08-23T07:39:44.513Z,20.50
2022-08-23T07:42:22.753Z,20.50
2022-08-23T07:44:53.875Z,20.40
2022-08-23T07:47:22.511Z,20.50
2022-08-23T07:49:51.021Z,20.50
2022-08-23T07:52:19.098Z,20.50
2022-08-23T07:54:48.331Z,20.60
2022-08-23T07:57:16.977Z,20.60
2022-08-23T07:59:45.921Z,20.70
2022-08-23T08:02:15.702Z,20.80
2022-08-23T08:04:44.010Z,20.90
2022-08-23T08:07:19.394Z,21.00
2022-08-23T08:09:49.101Z,21.20
2022-08-23T08:12:17.680Z,21.40
2022-08-23T08:14:46.834Z,21.60
2022-08-23T08:17:17.114Z,21.50
2022-08-23T08:19:46.025Z,21.60
2022-08-23T08:22:14.176Z,21.80
2022-08-23T08:24:42.497Z,21.70
2022-08-23T08:27:11.038Z,21.70
2022-08-23T08:29:39.076Z,21.80
2022-08-23T08:32:08.178Z,21.80
2022-08-23T08:34:43.757Z,22.00
2022-08-23T08:37:12.149Z,22.20
2022-08-23T08:39:45.540Z,22.20
2022-08-23T08:42:41.376Z,22.20
2022-08-23T08:45:17.576Z,22.50
2022-08-23T08:47:51.102Z,22.60
2022-08-23T08:50:26.615Z,22.60
2022-08-23T08:53:02.674Z,22.70
2022-08-23T08:55:38.144Z,22.80
2022-08-23T08:58:15.254Z,22.90
2022-08-23T09:00:44.102Z,22.90
2022-08-23T09:03:20.316Z,22.90
2022-08-23T09:05:58.488Z,22.90
2022-08-23T09:08:54.463Z,22.90
2022-08-23T09:11:40.973Z,22.90
2022-08-23T09:14:47.299Z,22.90
2022-08-23T09:17:26.287Z,22.80
2022-08-23T09:20:01.297Z,23.10
2022-08-23T09:22:38.836Z,23.30
2022-08-23T09:25:10.812Z,23.30
2022-08-23T09:27:39.582Z,23.30
2022-08-23T09:30:09.580Z,23.30
2022-08-23T09:32:41.276Z,23.30
2022-08-23T09:35:17.222Z,23.20
2022-08-23T09:37:59.368Z,23.10
2022-08-23T09:40:35.163Z,22.90
2022-08-23T09:43:14.210Z,22.70
2022-08-23T09:45:55.928Z,22.50
2022-08-23T09:48:40.907Z,22.50
2022-08-23T09:51:20.720Z,22.60
2022-08-23T09:54:02.955Z,22.50
2022-08-23T09:56:37.922Z,22.60
2022-08-23T09:59:26.940Z,22.60
2022-08-23T10:01:59.202Z,22.50
2022-08-23T10:04:44.674Z,22.50
2022-08-23T10:07:38.279Z,22.60
2022-08-23T10:10:24.426Z,22.70
2022-08-23T10:12:54.296Z,22.80
2022-08-23T10:15:41.415Z,23.00
2022-08-23T10:18:23.698Z,23.20
2022-08-23T10:21:04.183Z,23.40
2022-08-23T10:23:51.040Z,23.60
2022-08-23T10:26:28.251Z,24.00
2022-08-23T10:29:26.201Z,24.40
2022-08-23T10:32:15.180Z,24.70
2022-08-23T10:34:59.415Z,24.70
2022-08-23T10:37:45.984Z,24.80
2022-08-23T10:40:25.568Z,24.90
2022-08-23T10:43:15.175Z,24.90
2022-08-23T10:45:47.544Z,24.60
2022-08-23T10:48:28.548Z,24.50
2022-08-23T10:51:02.488Z,24.50
2022-08-23T10:53:41.447Z,24.30
2022-08-23T10:56:13.474Z,24.20
2022-08-23T10:58:48.938Z,24.10
2022-08-23T11:01:22.993Z,23.90
2022-08-23T11:04:04.853Z,23.80
2022-08-23T11:06:50.967Z,23.70
2022-08-23T11:09:51.051Z,23.70
2022-08-23T11:12:30.831Z,23.70
2022-08-23T11:15:25.403Z,23.50
2022-08-23T11:18:03.299Z,23.40
2022-08-23T11:21:04.725Z,23.20
2022-08-23T11:23:58.087Z,23.20
2022-08-23T11:27:06.415Z,23.50
2022-08-23T11:29:38.936Z,23.90
2022-08-23T11:32:43.687Z,24.30
2022-08-23T11:35:43.095Z,24.80
2022-08-23T11:38:13.090Z,25.00
2022-08-23T11:41:01.104Z,25.30
2022-08-23T11:43:35.092Z,25.20
2022-08-23T11:46:34.701Z,25.10
2022-08-23T11:50:04.158Z,24.90
2022-08-23T11:53:22.771Z,24.70
2022-08-23T11:56:17.392Z,24.80
2022-08-23T11:59:21.013Z,25.00
2022-08-23T12:01:52.041Z,25.30
2022-08-23T12:04:39.097Z,25.70
2022-08-23T12:07:13.114Z,25.70
2022-08-23T12:09:57.823Z,25.60
2022-08-23T12:12:38.123Z,25.60
2022-08-23T12:15:11.988Z,25.50
2022-08-23T12:18:24.440Z,25.30
2022-08-23T12:20:59.997Z,25.30
2022-08-23T12:23:30.936Z,25.10
2022-08-23T12:26:04.377Z,25.00
2022-08-23T12:28:49.668Z,25.00
2022-08-23T12:31:29.772Z,25.00
2022-08-23T12:34:23.322Z,24.70
2022-08-23T12:37:08.869Z,24.50
2022-08-23T12:39:47.974Z,24.20
2022-08-23T12:42:21.112Z,24.00
2022-08-23T12:45:03.938Z,23.90
2022-08-23T12:47:32.755Z,23.80
2022-08-23T12:50:09.170Z,23.90
2022-08-23T12:52:38.699Z,24.10
2022-08-23T12:55:18.454Z,24.40
2022-08-23T12:57:55.204Z,24.70
2022-08-23T13:00:28.874Z,25.20
2022-08-23T13:03:02.200Z,25.80
2022-08-23T13:05:46.037Z,26.20
2022-08-23T13:08:22.808Z,26.50
2022-08-23T13:11:08.012Z,26.70
2022-08-23T13:13:40.886Z,26.70
2022-08-23T13:16:28.193Z,26.70
2022-08-23T13:19:19.152Z,26.40
2022-08-23T13:21:47.361Z,26.20
2022-08-23T13:24:38.277Z,25.90
2022-08-23T13:27:23.197Z,25.80
2022-08-23T13:29:56.383Z,25.60
2022-08-23T13:32:41.723Z,25.50
2022-08-23T13:35:35.912Z,25.40
2022-08-23T13:38:21.369Z,25.30
2022-08-23T13:41:01.086Z,25.10
2022-08-23T13:43:38.633Z,24.80
2022-08-23T13:46:19.444Z,24.60
2022-08-23T13:48:59.168Z,24.30
2022-08-23T13:51:32.277Z,24.10
2022-08-23T13:54:03.464Z,24.20
2022-08-23T13:56:36.598Z,24.30
2022-08-23T13:59:26.760Z,24.50
2022-08-23T14:01:56.391Z,24.70
2022-08-23T14:04:24.654Z,24.90
2022-08-23T14:06:52.759Z,25.00
2022-08-23T14:09:21.098Z,25.00
2022-08-23T14:11:55.491Z,25.00
2022-08-23T14:14:25.538Z,25.10
2022-08-23T14:16:54.413Z,25.00
2022-08-23T14:22:10.865Z,25.00
2022-08-23T14:24:39.246Z,25.00
2022-08-23T14:27:09.078Z,25.00
2022-08-23T14:29:39.308Z,24.80
2022-08-23T14:32:07.669Z,24.80
2022-08-23T14:34:35.842Z,24.80
2022-08-23T14:39:52.378Z,24.80
2022-08-23T14:42:24.355Z,24.60
2022-08-23T14:44:53.925Z,24.70
2022-08-23T14:47:22.011Z,24.70
2022-08-23T14:49:53.674Z,24.70
2022-08-23T14:52:23.946Z,24.80
2022-08-23T14:54:52.137Z,24.90
2022-08-23T14:57:20.433Z,25.00
2022-08-23T14:59:48.603Z,25.10
2022-08-23T15:02:25.004Z,25.10
2022-08-23T15:04:54.030Z,25.10
2022-08-23T15:07:22.969Z,25.00
2022-08-23T15:09:55.143Z,25.00
2022-08-23T15:15:21.895Z,24.90
2022-08-23T15:17:55.861Z,24.80
2022-08-23T15:20:28.040Z,24.60
2022-08-23T15:22:56.340Z,24.50
2022-08-23T15:25:26.691Z,24.60
2022-08-23T15:27:55.259Z,24.60
2022-08-23T15:30:25.174Z,24.50
2022-08-23T15:32:56.625Z,24.60
2022-08-23T15:35:25.919Z,24.60
2022-08-23T15:37:55.958Z,24.50
2022-08-23T15:40:25.865Z,24.40
2022-08-23T15:42:54.362Z,24.40
2022-08-23T15:45:22.868Z,24.40
2022-08-23T15:47:56.363Z,24.40
2022-08-23T15:50:30.981Z,24.40
2022-08-23T15:52:59.410Z,24.30
2022-08-23T15:55:33.485Z,24.20
2022-08-23T15:58:01.755Z,24.20
2022-08-23T16:00:30.177Z,24.10
2022-08-23T16:03:18.527Z,24.20
2022-08-23T16:05:52.266Z,24.30
2022-08-23T16:08:26.354Z,24.20
2022-08-23T16:10:55.520Z,24.10
2022-08-23T16:13:24.997Z,24.10
2022-08-23T16:15:53.881Z,24.10
2022-08-23T16:18:23.501Z,24.10
2022-08-23T16:20:54.320Z,24.00
2022-08-23T16:23:23.143Z,24.00
2022-08-23T16:25:51.440Z,23.90
2022-08-23T16:28:19.670Z,23.80
2022-08-23T16:30:47.906Z,23.80
2022-08-23T16:33:16.095Z,23.80
2022-08-23T16:35:45.797Z,23.80
2022-08-23T16:38:13.981Z,23.70
2022-08-23T16:40:42.093Z,23.70
2022-08-23T16:43:10.232Z,23.60
2022-08-23T16:45:38.409Z,23.50
2022-08-23T16:48:06.945Z,23.50
2022-08-23T16:50:35.016Z,23.50
2022-08-23T16:53:07.375Z,23.40
2022-08-23T16:55:36.239Z,23.40
2022-08-23T16:58:05.968Z,23.30
2022-08-23T17:00:34.862Z,23.20
2022-08-23T17:03:04.048Z,23.20
2022-08-23T17:05:32.379Z,23.10
2022-08-23T17:08:00.864Z,23.00
2022-08-23T17:10:30.579Z,22.90
2022-08-23T17:12:59.632Z,22.90
2022-08-23T17:15:32.030Z,22.90
2022-08-23T17:18:00.806Z,22.80
2022-08-23T17:20:33.717Z,22.80
2022-08-23T17:23:05.678Z,22.70
2022-08-23T17:25:36.352Z,22.60
2022-08-23T17:28:06.634Z,22.50
2022-08-23T17:30:35.481Z,22.50
2022-08-23T17:33:04.242Z,22.40
2022-08-23T17:35:34.747Z,22.40
2022-08-23T17:38:05.345Z,22.30
2022-08-23T17:40:39.768Z,22.30
2022-08-23T17:43:08.485Z,22.30
2022-08-23T17:45:44.183Z,22.20
2022-08-23T17:48:13.018Z,22.20
2022-08-23T17:50:43.568Z,22.10
2022-08-23T17:53:14.406Z,22.10
2022-08-23T17:55:44.640Z,22.00
2022-08-23T17:58:14.137Z,22.00
2022-08-23T18:00:42.554Z,21.90
2022-08-23T18:03:10.705Z,21.80
2022-08-23T18:05:41.050Z,21.80
2022-08-23T18:08:10.266Z,21.70
2022-08-23T18:10:38.424Z,21.60
2022-08-23T18:13:08.308Z,21.40
2022-08-23T18:15:36.596Z,21.40
2022-08-23T18:18:06.128Z,21.20
2022-08-23T18:20:34.730Z,21.10
2022-08-23T18:23:03.342Z,21.00
2022-08-23T18:25:32.088Z,20.90
2022-08-23T18:28:08.528Z,20.80
2022-08-23T18:30:40.907Z,20.70
2022-08-23T18:33:12.489Z,20.70
2022-08-23T18:35:42.712Z,20.60
2022-08-23T18:38:12.516Z,20.50
2022-08-23T18:40:46.137Z,20.50
2022-08-23T18:43:16.797Z,20.40
2022-08-23T18:45:48.532Z,20.30
2022-08-23T18:48:17.502Z,20.20
2022-08-23T18:50:47.265Z,20.20
2022-08-23T18:53:15.559Z,20.10
2022-08-23T18:55:44.203Z,20.20
2022-08-23T18:58:12.288Z,20.10
2022-08-23T19:00:41.814Z,20.00
2022-08-23T19:03:12.366Z,20.00
2022-08-23T19:05:42.550Z,19.90
2022-08-23T19:08:12.115Z,19.90
2022-08-23T19:10:41.766Z,19.90
2022-08-23T19:13:10.947Z,19.90
2022-08-23T19:15:42.030Z,19.80
2022-08-23T19:18:11.674Z,19.80
2022-08-23T19:20:39.759Z,19.80
2022-08-23T19:23:07.972Z,19.70
2022-08-23T19:25:38.461Z,19.70
2022-08-23T19:28:07.373Z,19.70
2022-08-23T19:30:35.764Z,19.70
2022-08-23T19:33:04.622Z,19.60
2022-08-23T19:35:34.823Z,19.60
2022-08-23T19:38:03.299Z,19.50
2022-08-23T19:40:31.529Z,19.50
2022-08-23T19:43:00.415Z,19.50
2022-08-23T19:45:31.973Z,19.40
2022-08-23T19:48:00.914Z,19.40
2022-08-23T19:50:30.316Z,19.40
2022-08-23T19:53:00.015Z,19.30
2022-08-23T19:55:29.122Z,19.30
2022-08-23T19:57:58.188Z,19.30
2022-08-23T20:00:28.082Z,19.30
2022-08-23T20:02:56.246Z,19.30
2022-08-23T20:05:24.399Z,19.40
2022-08-23T20:07:52.604Z,19.30
2022-08-23T20:10:22.693Z,19.30
2022-08-23T20:12:50.814Z,19.30
2022-08-23T20:15:19.258Z,19.30
2022-08-23T20:17:47.335Z,19.30
2022-08-23T20:20:15.507Z,19.30
2022-08-23T20:23:01.514Z,19.30
2022-08-23T20:25:31.734Z,19.30
2022-08-23T20:28:00.157Z,19.30
2022-08-23T20:30:28.311Z,19.20
2022-08-23T20:32:56.529Z,19.20
2022-08-23T20:35:24.884Z,19.20
2022-08-23T20:37:52.988Z,19.10
2022-08-23T20:40:21.844Z,19.10
2022-08-23T20:42:52.178Z,19.10
2022-08-23T20:45:20.654Z,19.10
2022-08-23T20:47:48.799Z,19.00
2022-08-23T20:50:17.191Z,18.90
2022-08-23T20:52:45.347Z,18.90
2022-08-23T20:55:15.300Z,18.90
2022-08-23T20:57:43.442Z,18.80
2022-08-23T21:00:14.511Z,18.70
2022-08-23T21:02:42.627Z,18.70
2022-08-23T21:05:11.209Z,18.70
2022-08-23T21:07:40.095Z,18.70
2022-08-23T21:10:10.788Z,18.60
2022-08-23T21:12:39.177Z,18.70
2022-08-23T21:15:11.075Z,18.70
2022-08-23T21:17:40.844Z,18.70
2022-08-23T21:20:09.977Z,18.70
2022-08-23T21:22:38.207Z,18.70
2022-08-23T21:25:07.473Z,18.80
2022-08-23T21:27:36.412Z,18.80
2022-08-23T21:30:06.443Z,18.80
2022-08-23T21:32:34.712Z,18.80
2022-08-23T21:35:04.629Z,18.70
2022-08-23T21:37:32.906Z,18.70
2022-08-23T21:40:01.389Z,18.60
2022-08-23T21:42:30.525Z,18.60
2022-08-23T21:44:58.726Z,18.60
2022-08-23T21:47:27.078Z,18.50
2022-08-23T21:49:55.423Z,18.50
2022-08-23T21:52:25.083Z,18.50
2022-08-23T21:54:53.489Z,18.40
2022-08-23T21:57:21.621Z,18.40
2022-08-23T21:59:50.207Z,18.30
2022-08-23T22:02:19.245Z,18.30
2022-08-23T22:04:48.162Z,18.30
2022-08-23T22:07:16.313Z,18.30
2022-08-23T22:09:46.741Z,18.30
2022-08-23T22:12:15.088Z,18.30
2022-08-23T22:14:43.208Z,18.30
2022-08-23T22:17:11.371Z,18.20
2022-08-23T22:19:39.503Z,18.20
2022-08-23T22:22:07.678Z,18.20
2022-08-23T22:24:35.827Z,18.20
2022-08-23T22:27:06.105Z,18.20
2022-08-23T22:29:34.571Z,18.10
2022-08-23T22:32:03.027Z,18.20
2022-08-23T22:34:31.293Z,18.20
2022-08-23T22:36:59.452Z,18.10
2022-08-23T22:39:27.861Z,18.10
2022-08-23T22:41:56.351Z,18.10
2022-08-23T22:44:25.769Z,18.00
2022-08-23T22:46:53.923Z,18.00
2022-08-23T22:49:22.108Z,18.00
2022-08-23T22:51:55.516Z,17.90
2022-08-23T22:54:24.612Z,17.90
2022-08-23T22:56:54.747Z,17.90
2022-08-23T22:59:31.150Z,17.80
2022-08-23T23:02:03.364Z,17.80
2022-08-23T23:04:33.643Z,17.80
2022-08-23T23:07:02.555Z,17.80
2022-08-23T23:09:30.902Z,17.80
2022-08-23T23:11:59.195Z,17.80
2022-08-23T23:14:28.901Z,17.80
2022-08-23T23:16:57.150Z,17.70
2022-08-23T23:19:42.844Z,17.70
2022-08-23T23:22:14.221Z,17.80
2022-08-23T23:24:42.524Z,17.70
2022-08-23T23:27:10.637Z,17.70
2022-08-23T23:29:40.082Z,17.60
2022-08-23T23:32:08.488Z,17.60
2022-08-23T23:34:37.845Z,17.60
2022-08-23T23:37:06.289Z,17.50
2022-08-23T23:39:34.549Z,17.50
2022-08-23T23:42:02.724Z,17.50
2022-08-23T23:44:31.950Z,17.50
2022-08-23T23:47:02.350Z,17.50
2022-08-23T23:49:33.489Z,17.50
2022-08-23T23:52:04.310Z,17.40
2022-08-23T23:54:35.409Z,17.40
2022-08-23T23:57:04.420Z,17.40
2022-08-23T23:59:33.067Z,17.40
